sensor_id;sensor_type;location;lat;lon;timestamp;temperature;humidity
9845;DHT22;4961;50.782;6.080;2022-10-16T00:01:38;15.00;99.90
9845;DHT22;4961;50.782;6.080;2022-10-16T00:04:08;15.00;99.90
9845;DHT22;4961;50.782;6.080;2022-10-16T00:06:36;15.00;99.90
9845;DHT22;4961;50.782;6.080;2022-10-16T00:09:04;15.00;99.90
9845;DHT22;4961;50.782;6.080;2022-10-16T00:11:35;15.00;99.90
9845;DHT22;4961;50.782;6.080;2022-10-16T00:14:06;15.00;99.90
9845;DHT22;4961;50.782;6.080;2022-10-16T00:16:35;14.90;99.90
9845;DHT22;4961;50.782;6.080;2022-10-16T00:19:03;14.90;99.90
9845;DHT22;4961;50.782;6.080;2022-10-16T00:21:32;14.90;99.90
9845;DHT22;4961;50.782;6.080;2022-10-16T00:24:03;14.80;99.90
9845;DHT22;4961;50.782;6.080;2022-10-16T00:26:34;14.80;99.90
9845;DHT22;4961;50.782;6.080;2022-10-16T00:29:03;14.80;99.90
9845;DHT22;4961;50.782;6.080;2022-10-16T00:31:32;14.80;99.90
9845;DHT22;4961;50.782;6.080;2022-10-16T00:34:00;14.80;99.90
9845;DHT22;4961;50.782;6.080;2022-10-16T00:36:28;14.90;99.90
9845;DHT22;4961;50.782;6.080;2022-10-16T00:38:57;14.80;99.90
9845;DHT22;4961;50.782;6.080;2022-10-16T00:41:33;14.80;99.90
9845;DHT22;4961;50.782;6.080;2022-10-16T00:44:43;14.70;99.90
9845;DHT22;4961;50.782;6.080;2022-10-16T00:47:17;14.70;99.90
9845;DHT22;4961;50.782;6.080;2022-10-16T00:49:50;14.70;99.90
9845;DHT22;4961;50.782;6.080;2022-10-16T00:52:19;14.80;99.90
9845;DHT22;4961;50.782;6.080;2022-10-16T00:54:49;14.80;99.90
9845;DHT22;4961;50.782;6.080;2022-10-16T00:57:19;14.80;99.90
9845;DHT22;4961;50.782;6.080;2022-10-16T00:59:48;14.70;99.90
9845;DHT22;4961;50.782;6.080;2022-10-16T01:02:17;14.70;99.90
9845;DHT22;4961;50.782;6.080;2022-10-16T01:04:48;14.70;99.90
9845;DHT22;4961;50.782;6.080;2022-10-16T01:07:29;14.60;99.90
9845;DHT22;4961;50.782;6.080;2022-10-16T01:10:07;14.60;99.90
9845;DHT22;4961;50.782;6.080;2022-10-16T01:12:45;14.70;99.90
9845;DHT22;4961;50.782;6.080;2022-10-16T01:15:20;14.70;99.90
9845;DHT22;4961;50.782;6.080;2022-10-16T01:17:58;14.70;99.90
9845;DHT22;4961;50.782;6.080;2022-10-16T01:20:31;14.70;99.90
9845;DHT22;4961;50.782;6.080;2022-10-16T01:23:15;14.70;99.90
9845;DHT22;4961;50.782;6.080;2022-10-16T01:28:41;14.70;99.90
9845;DHT22;4961;50.782;6.080;2022-10-16T01:31:13;14.70;99.90
9845;DHT22;4961;50.782;6.080;2022-10-16T01:33:45;14.60;99.90
9845;DHT22;4961;50.782;6.080;2022-10-16T01:36:16;14.60;99.90
9845;DHT22;4961;50.782;6.080;2022-10-16T01:38:48;14.60;99.90
9845;DHT22;4961;50.782;6.080;2022-10-16T01:41:22;14.60;99.90
9845;DHT22;4961;50.782;6.080;2022-10-16T01:43:58;14.70;99.90
9845;DHT22;4961;50.782;6.080;2022-10-16T01:46:31;14.70;99.90
9845;DHT22;4961;50.782;6.080;2022-10-16T01:49:02;14.70;99.90
9845;DHT22;4961;50.782;6.080;2022-10-16T01:51:31;14.60;99.90
9845;DHT22;4961;50.782;6.080;2022-10-16T01:54:00;14.60;99.90
9845;DHT22;4961;50.782;6.080;2022-10-16T01:56:29;14.60;99.90
9845;DHT22;4961;50.782;6.080;2022-10-16T01:59:02;14.60;99.90
9845;DHT22;4961;50.782;6.080;2022-10-16T02:01:35;14.60;99.90
9845;DHT22;4961;50.782;6.080;2022-10-16T02:04:13;14.70;99.90
9845;DHT22;4961;50.782;6.080;2022-10-16T02:06:42;14.60;99.90
9845;DHT22;4961;50.782;6.080;2022-10-16T02:09:11;14.60;99.90
9845;DHT22;4961;50.782;6.080;2022-10-16T02:11:39;14.60;99.90
9845;DHT22;4961;50.782;6.080;2022-10-16T02:14:09;14.60;99.90
9845;DHT22;4961;50.782;6.080;2022-10-16T02:16:40;14.60;99.90
9845;DHT22;4961;50.782;6.080;2022-10-16T02:19:09;14.60;99.90
9845;DHT22;4961;50.782;6.080;2022-10-16T02:21:42;14.60;99.90
9845;DHT22;4961;50.782;6.080;2022-10-16T02:24:17;14.60;99.90
9845;DHT22;4961;50.782;6.080;2022-10-16T02:26:51;14.60;99.90
9845;DHT22;4961;50.782;6.080;2022-10-16T02:29:24;14.60;99.90
9845;DHT22;4961;50.782;6.080;2022-10-16T02:31:56;14.50;99.90
9845;DHT22;4961;50.782;6.080;2022-10-16T02:34:28;14.50;99.90
9845;DHT22;4961;50.782;6.080;2022-10-16T02:36:58;14.50;99.90
9845;DHT22;4961;50.782;6.080;2022-10-16T02:39:28;14.50;99.90
9845;DHT22;4961;50.782;6.080;2022-10-16T02:41:58;14.50;99.90
9845;DHT22;4961;50.782;6.080;2022-10-16T02:44:27;14.50;99.90
9845;DHT22;4961;50.782;6.080;2022-10-16T02:46:56;14.50;99.90
9845;DHT22;4961;50.782;6.080;2022-10-16T02:49:25;14.50;99.90
9845;DHT22;4961;50.782;6.080;2022-10-16T02:51:55;14.50;99.90
9845;DHT22;4961;50.782;6.080;2022-10-16T02:54:29;14.40;99.90
9845;DHT22;4961;50.782;6.080;2022-10-16T02:57:00;14.40;99.90
9845;DHT22;4961;50.782;6.080;2022-10-16T02:59:31;14.40;99.90
9845;DHT22;4961;50.782;6.080;2022-10-16T03:01:59;14.40;99.90
9845;DHT22;4961;50.782;6.080;2022-10-16T03:04:27;14.40;99.90
9845;DHT22;4961;50.782;6.080;2022-10-16T03:06:55;14.40;99.90
9845;DHT22;4961;50.782;6.080;2022-10-16T03:09:24;14.50;99.90
9845;DHT22;4961;50.782;6.080;2022-10-16T03:11:52;14.50;99.90
9845;DHT22;4961;50.782;6.080;2022-10-16T03:14:20;14.50;99.90
9845;DHT22;4961;50.782;6.080;2022-10-16T03:16:49;14.50;99.90
9845;DHT22;4961;50.782;6.080;2022-10-16T03:19:18;14.50;99.90
9845;DHT22;4961;50.782;6.080;2022-10-16T03:21:46;14.50;99.90
9845;DHT22;4961;50.782;6.080;2022-10-16T03:24:14;14.50;99.90
9845;DHT22;4961;50.782;6.080;2022-10-16T03:26:42;14.50;99.90
9845;DHT22;4961;50.782;6.080;2022-10-16T03:29:10;14.50;99.90
9845;DHT22;4961;50.782;6.080;2022-10-16T03:31:38;14.50;99.90
9845;DHT22;4961;50.782;6.080;2022-10-16T03:34:08;14.60;99.90
9845;DHT22;4961;50.782;6.080;2022-10-16T03:36:36;14.50;99.90
9845;DHT22;4961;50.782;6.080;2022-10-16T03:39:04;14.50;99.90
9845;DHT22;4961;50.782;6.080;2022-10-16T03:41:32;14.50;99.90
9845;DHT22;4961;50.782;6.080;2022-10-16T03:44:01;14.50;99.90
9845;DHT22;4961;50.782;6.080;2022-10-16T03:46:29;14.60;99.90
9845;DHT22;4961;50.782;6.080;2022-10-16T03:48:57;14.50;99.90
9845;DHT22;4961;50.782;6.080;2022-10-16T03:51:27;14.50;99.90
9845;DHT22;4961;50.782;6.080;2022-10-16T03:53:55;14.50;99.90
9845;DHT22;4961;50.782;6.080;2022-10-16T03:56:23;14.50;99.90
9845;DHT22;4961;50.782;6.080;2022-10-16T03:58:51;14.50;99.90
9845;DHT22;4961;50.782;6.080;2022-10-16T04:01:19;14.40;99.90
9845;DHT22;4961;50.782;6.080;2022-10-16T04:03:48;14.40;99.90
9845;DHT22;4961;50.782;6.080;2022-10-16T04:06:16;14.50;99.90
9845;DHT22;4961;50.782;6.080;2022-10-16T04:08:45;14.50;99.90
9845;DHT22;4961;50.782;6.080;2022-10-16T04:11:13;14.40;99.90
9845;DHT22;4961;50.782;6.080;2022-10-16T04:13:42;14.40;99.90
9845;DHT22;4961;50.782;6.080;2022-10-16T04:16:10;14.40;99.90
9845;DHT22;4961;50.782;6.080;2022-10-16T04:18:38;14.40;99.90
9845;DHT22;4961;50.782;6.080;2022-10-16T04:21:06;14.40;99.90
9845;DHT22;4961;50.782;6.080;2022-10-16T04:23:35;14.40;99.90
9845;DHT22;4961;50.782;6.080;2022-10-16T04:26:05;14.40;99.90
9845;DHT22;4961;50.782;6.080;2022-10-16T04:28:33;14.40;99.90
9845;DHT22;4961;50.782;6.080;2022-10-16T04:31:03;14.40;99.90
9845;DHT22;4961;50.782;6.080;2022-10-16T04:33:32;14.40;99.90
9845;DHT22;4961;50.782;6.080;2022-10-16T04:36:01;14.30;99.90
9845;DHT22;4961;50.782;6.080;2022-10-16T04:38:30;14.40;99.90
9845;DHT22;4961;50.782;6.080;2022-10-16T04:40:58;14.30;99.90
9845;DHT22;4961;50.782;6.080;2022-10-16T04:43:28;14.40;99.90
9845;DHT22;4961;50.782;6.080;2022-10-16T04:45:56;14.40;99.90
9845;DHT22;4961;50.782;6.080;2022-10-16T04:48:24;14.40;99.90
9845;DHT22;4961;50.782;6.080;2022-10-16T04:50:52;14.40;99.90
9845;DHT22;4961;50.782;6.080;2022-10-16T04:53:21;14.40;99.90
9845;DHT22;4961;50.782;6.080;2022-10-16T04:55:49;14.30;99.90
9845;DHT22;4961;50.782;6.080;2022-10-16T04:58:17;14.30;99.90
9845;DHT22;4961;50.782;6.080;2022-10-16T05:00:47;14.30;99.90
9845;DHT22;4961;50.782;6.080;2022-10-16T05:03:15;14.30;99.90
9845;DHT22;4961;50.782;6.080;2022-10-16T05:05:44;14.30;99.90
9845;DHT22;4961;50.782;6.080;2022-10-16T05:08:13;14.30;99.90
9845;DHT22;4961;50.782;6.080;2022-10-16T05:10:43;14.20;99.90
9845;DHT22;4961;50.782;6.080;2022-10-16T05:13:11;14.30;99.90
9845;DHT22;4961;50.782;6.080;2022-10-16T05:15:40;14.30;99.90
9845;DHT22;4961;50.782;6.080;2022-10-16T05:18:10;14.30;99.90
9845;DHT22;4961;50.782;6.080;2022-10-16T05:20:38;14.30;99.90
9845;DHT22;4961;50.782;6.080;2022-10-16T05:23:06;14.30;99.90
9845;DHT22;4961;50.782;6.080;2022-10-16T05:25:34;14.30;99.90
9845;DHT22;4961;50.782;6.080;2022-10-16T05:28:02;14.30;99.90
9845;DHT22;4961;50.782;6.080;2022-10-16T05:30:31;14.30;99.90
9845;DHT22;4961;50.782;6.080;2022-10-16T05:33:00;14.30;99.90
9845;DHT22;4961;50.782;6.080;2022-10-16T05:35:29;14.40;99.90
9845;DHT22;4961;50.782;6.080;2022-10-16T05:37:57;14.30;99.90
9845;DHT22;4961;50.782;6.080;2022-10-16T05:40:26;14.30;99.90
9845;DHT22;4961;50.782;6.080;2022-10-16T05:42:55;14.20;99.90
9845;DHT22;4961;50.782;6.080;2022-10-16T05:45:23;14.20;99.90
9845;DHT22;4961;50.782;6.080;2022-10-16T05:47:51;14.20;99.90
9845;DHT22;4961;50.782;6.080;2022-10-16T05:50:21;14.20;99.90
9845;DHT22;4961;50.782;6.080;2022-10-16T05:52:50;14.20;99.90
9845;DHT22;4961;50.782;6.080;2022-10-16T05:55:18;14.20;99.90
9845;DHT22;4961;50.782;6.080;2022-10-16T05:57:46;14.30;99.90
9845;DHT22;4961;50.782;6.080;2022-10-16T06:00:15;14.20;99.90
9845;DHT22;4961;50.782;6.080;2022-10-16T06:02:43;14.20;99.90
9845;DHT22;4961;50.782;6.080;2022-10-16T06:05:11;14.30;99.90
9845;DHT22;4961;50.782;6.080;2022-10-16T06:07:39;14.30;99.90
9845;DHT22;4961;50.782;6.080;2022-10-16T06:10:09;14.40;99.90
9845;DHT22;4961;50.782;6.080;2022-10-16T06:12:37;14.30;99.90
9845;DHT22;4961;50.782;6.080;2022-10-16T06:15:06;14.30;99.90
9845;DHT22;4961;50.782;6.080;2022-10-16T06:17:34;14.30;99.90
9845;DHT22;4961;50.782;6.080;2022-10-16T06:20:02;14.30;99.90
9845;DHT22;4961;50.782;6.080;2022-10-16T06:22:30;14.30;99.90
9845;DHT22;4961;50.782;6.080;2022-10-16T06:24:58;14.30;99.90
9845;DHT22;4961;50.782;6.080;2022-10-16T06:27:28;14.30;99.90
9845;DHT22;4961;50.782;6.080;2022-10-16T06:29:56;14.30;99.90
9845;DHT22;4961;50.782;6.080;2022-10-16T06:32:24;14.30;99.90
9845;DHT22;4961;50.782;6.080;2022-10-16T06:34:52;14.30;99.90
9845;DHT22;4961;50.782;6.080;2022-10-16T06:37:20;14.30;99.90
9845;DHT22;4961;50.782;6.080;2022-10-16T06:39:49;14.40;99.90
9845;DHT22;4961;50.782;6.080;2022-10-16T06:42:19;14.40;99.90
9845;DHT22;4961;50.782;6.080;2022-10-16T06:44:48;14.40;99.90
9845;DHT22;4961;50.782;6.080;2022-10-16T06:47:16;14.40;99.90
9845;DHT22;4961;50.782;6.080;2022-10-16T06:49:44;14.40;99.90
9845;DHT22;4961;50.782;6.080;2022-10-16T06:52:20;14.30;99.90
9845;DHT22;4961;50.782;6.080;2022-10-16T06:54:49;14.30;99.90
9845;DHT22;4961;50.782;6.080;2022-10-16T06:57:17;14.30;99.90
9845;DHT22;4961;50.782;6.080;2022-10-16T06:59:45;14.30;99.90
9845;DHT22;4961;50.782;6.080;2022-10-16T07:02:19;14.30;99.90
9845;DHT22;4961;50.782;6.080;2022-10-16T07:04:47;14.40;99.90
9845;DHT22;4961;50.782;6.080;2022-10-16T07:07:15;14.30;99.90
9845;DHT22;4961;50.782;6.080;2022-10-16T07:09:43;14.30;99.90
9845;DHT22;4961;50.782;6.080;2022-10-16T07:12:11;14.40;99.90
9845;DHT22;4961;50.782;6.080;2022-10-16T07:14:39;14.40;99.90
9845;DHT22;4961;50.782;6.080;2022-10-16T07:17:08;14.40;99.90
9845;DHT22;4961;50.782;6.080;2022-10-16T07:19:37;14.40;99.90
9845;DHT22;4961;50.782;6.080;2022-10-16T07:22:06;14.30;99.90
9845;DHT22;4961;50.782;6.080;2022-10-16T07:24:34;14.40;99.90
9845;DHT22;4961;50.782;6.080;2022-10-16T07:27:04;14.30;99.90
9845;DHT22;4961;50.782;6.080;2022-10-16T07:29:32;14.30;99.90
9845;DHT22;4961;50.782;6.080;2022-10-16T07:32:01;14.30;99.90
9845;DHT22;4961;50.782;6.080;2022-10-16T07:34:30;14.30;99.90
9845;DHT22;4961;50.782;6.080;2022-10-16T07:37:00;14.40;99.90
9845;DHT22;4961;50.782;6.080;2022-10-16T07:39:28;14.40;99.90
9845;DHT22;4961;50.782;6.080;2022-10-16T07:41:56;14.40;99.90
9845;DHT22;4961;50.782;6.080;2022-10-16T07:44:25;14.40;99.90
9845;DHT22;4961;50.782;6.080;2022-10-16T07:46:53;14.50;99.90
9845;DHT22;4961;50.782;6.080;2022-10-16T07:49:21;14.60;99.90
9845;DHT22;4961;50.782;6.080;2022-10-16T07:51:49;14.70;99.90
9845;DHT22;4961;50.782;6.080;2022-10-16T07:54:19;14.70;99.90
9845;DHT22;4961;50.782;6.080;2022-10-16T07:56:47;14.80;99.90
9845;DHT22;4961;50.782;6.080;2022-10-16T07:59:15;14.80;99.90
9845;DHT22;4961;50.782;6.080;2022-10-16T08:01:44;14.90;99.90
9845;DHT22;4961;50.782;6.080;2022-10-16T08:04:12;14.90;99.90
9845;DHT22;4961;50.782;6.080;2022-10-16T08:06:40;15.00;99.90
9845;DHT22;4961;50.782;6.080;2022-10-16T08:09:09;15.00;99.90
9845;DHT22;4961;50.782;6.080;2022-10-16T08:11:38;15.10;99.90
9845;DHT22;4961;50.782;6.080;2022-10-16T08:14:06;15.10;99.90
9845;DHT22;4961;50.782;6.080;2022-10-16T08:16:34;15.20;99.90
9845;DHT22;4961;50.782;6.080;2022-10-16T08:19:03;15.20;99.90
9845;DHT22;4961;50.782;6.080;2022-10-16T08:21:31;15.30;99.90
9845;DHT22;4961;50.782;6.080;2022-10-16T08:23:59;15.40;99.90
9845;DHT22;4961;50.782;6.080;2022-10-16T08:26:27;15.50;99.90
9845;DHT22;4961;50.782;6.080;2022-10-16T08:28:57;15.50;99.90
9845;DHT22;4961;50.782;6.080;2022-10-16T08:31:25;15.60;99.90
9845;DHT22;4961;50.782;6.080;2022-10-16T08:33:54;15.60;99.90
9845;DHT22;4961;50.782;6.080;2022-10-16T08:36:22;15.70;99.90
9845;DHT22;4961;50.782;6.080;2022-10-16T08:38:50;15.80;99.90
9845;DHT22;4961;50.782;6.080;2022-10-16T08:44:29;15.90;99.90
9845;DHT22;4961;50.782;6.080;2022-10-16T08:47:02;16.00;99.90
9845;DHT22;4961;50.782;6.080;2022-10-16T08:49:37;16.00;99.90
9845;DHT22;4961;50.782;6.080;2022-10-16T08:52:11;16.20;99.90
9845;DHT22;4961;50.782;6.080;2022-10-16T08:54:43;16.30;99.90
9845;DHT22;4961;50.782;6.080;2022-10-16T08:57:16;16.50;99.90
9845;DHT22;4961;50.782;6.080;2022-10-16T08:59:51;16.70;99.90
9845;DHT22;4961;50.782;6.080;2022-10-16T09:02:26;17.00;99.90
9845;DHT22;4961;50.782;6.080;2022-10-16T09:05:08;17.30;99.90
9845;DHT22;4961;50.782;6.080;2022-10-16T09:07:43;17.60;99.90
9845;DHT22;4961;50.782;6.080;2022-10-16T09:10:24;18.10;99.90
9845;DHT22;4961;50.782;6.080;2022-10-16T09:12:59;18.60;99.90
9845;DHT22;4961;50.782;6.080;2022-10-16T09:15:36;19.10;99.90
9845;DHT22;4961;50.782;6.080;2022-10-16T09:18:15;19.50;99.90
9845;DHT22;4961;50.782;6.080;2022-10-16T09:20:49;19.90;99.90
9845;DHT22;4961;50.782;6.080;2022-10-16T09:23:21;20.40;99.90
9845;DHT22;4961;50.782;6.080;2022-10-16T09:25:51;20.80;99.90
9845;DHT22;4961;50.782;6.080;2022-10-16T09:28:20;21.00;99.90
9845;DHT22;4961;50.782;6.080;2022-10-16T09:30:51;21.00;99.90
9845;DHT22;4961;50.782;6.080;2022-10-16T09:33:21;21.00;99.90
9845;DHT22;4961;50.782;6.080;2022-10-16T09:35:51;21.20;99.90
9845;DHT22;4961;50.782;6.080;2022-10-16T09:38:26;21.40;99.90
9845;DHT22;4961;50.782;6.080;2022-10-16T09:40:58;21.80;99.90
9845;DHT22;4961;50.782;6.080;2022-10-16T09:43:34;22.00;99.90
9845;DHT22;4961;50.782;6.080;2022-10-16T09:46:08;22.20;99.90
9845;DHT22;4961;50.782;6.080;2022-10-16T09:48:39;22.50;99.90
9845;DHT22;4961;50.782;6.080;2022-10-16T09:51:18;22.80;99.90
9845;DHT22;4961;50.782;6.080;2022-10-16T09:53:48;22.90;99.90
9845;DHT22;4961;50.782;6.080;2022-10-16T09:56:24;22.70;99.90
9845;DHT22;4961;50.782;6.080;2022-10-16T09:58:54;22.50;99.90
9845;DHT22;4961;50.782;6.080;2022-10-16T10:01:28;22.60;99.90
9845;DHT22;4961;50.782;6.080;2022-10-16T10:03:57;23.00;99.90
9845;DHT22;4961;50.782;6.080;2022-10-16T10:06:30;23.30;99.90
9845;DHT22;4961;50.782;6.080;2022-10-16T10:09:03;23.50;99.90
9845;DHT22;4961;50.782;6.080;2022-10-16T10:11:39;23.50;99.90
9845;DHT22;4961;50.782;6.080;2022-10-16T10:14:16;23.30;99.90
9845;DHT22;4961;50.782;6.080;2022-10-16T10:16:47;23.00;99.90
9845;DHT22;4961;50.782;6.080;2022-10-16T10:19:17;22.70;99.90
9845;DHT22;4961;50.782;6.080;2022-10-16T10:21:45;22.20;99.90
9845;DHT22;4961;50.782;6.080;2022-10-16T10:24:15;21.80;99.90
9845;DHT22;4961;50.782;6.080;2022-10-16T10:26:53;21.40;99.90
9845;DHT22;4961;50.782;6.080;2022-10-16T10:29:44;21.20;99.90
9845;DHT22;4961;50.782;6.080;2022-10-16T10:32:26;21.00;99.90
9845;DHT22;4961;50.782;6.080;2022-10-16T10:35:07;20.80;99.90
9845;DHT22;4961;50.782;6.080;2022-10-16T10:38:01;20.90;99.90
9845;DHT22;4961;50.782;6.080;2022-10-16T10:40:40;20.90;99.90
9845;DHT22;4961;50.782;6.080;2022-10-16T10:43:21;20.70;99.90
9845;DHT22;4961;50.782;6.080;2022-10-16T10:45:54;20.50;99.90
9845;DHT22;4961;50.782;6.080;2022-10-16T10:48:46;20.40;99.90
9845;DHT22;4961;50.782;6.080;2022-10-16T10:51:22;20.40;99.90
9845;DHT22;4961;50.782;6.080;2022-10-16T10:54:04;20.50;99.90
9845;DHT22;4961;50.782;6.080;2022-10-16T10:56:48;20.50;99.90
9845;DHT22;4961;50.782;6.080;2022-10-16T10:59:37;20.60;99.90
9845;DHT22;4961;50.782;6.080;2022-10-16T11:02:15;20.70;99.90
9845;DHT22;4961;50.782;6.080;2022-10-16T11:05:04;20.70;99.90
9845;DHT22;4961;50.782;6.080;2022-10-16T11:07:45;20.70;99.90
9845;DHT22;4961;50.782;6.080;2022-10-16T11:10:19;20.90;99.90
9845;DHT22;4961;50.782;6.080;2022-10-16T11:12:52;21.10;99.90
9845;DHT22;4961;50.782;6.080;2022-10-16T11:15:27;21.20;99.90
9845;DHT22;4961;50.782;6.080;2022-10-16T11:18:02;21.40;99.90
9845;DHT22;4961;50.782;6.080;2022-10-16T11:20:45;21.50;99.90
9845;DHT22;4961;50.782;6.080;2022-10-16T11:23:24;21.60;99.90
9845;DHT22;4961;50.782;6.080;2022-10-16T11:25:56;21.70;99.90
9845;DHT22;4961;50.782;6.080;2022-10-16T11:28:29;21.70;99.90
9845;DHT22;4961;50.782;6.080;2022-10-16T11:31:05;21.50;99.90
9845;DHT22;4961;50.782;6.080;2022-10-16T11:33:39;21.40;99.90
9845;DHT22;4961;50.782;6.080;2022-10-16T11:36:13;21.20;99.90
9845;DHT22;4961;50.782;6.080;2022-10-16T11:38:48;21.00;99.90
9845;DHT22;4961;50.782;6.080;2022-10-16T11:41:23;21.00;99.90
9845;DHT22;4961;50.782;6.080;2022-10-16T11:44:00;21.00;99.90
9845;DHT22;4961;50.782;6.080;2022-10-16T11:46:33;21.20;99.90
9845;DHT22;4961;50.782;6.080;2022-10-16T11:49:26;21.20;99.90
9845;DHT22;4961;50.782;6.080;2022-10-16T11:52:00;21.30;99.90
9845;DHT22;4961;50.782;6.080;2022-10-16T11:54:39;21.30;99.90
9845;DHT22;4961;50.782;6.080;2022-10-16T11:57:13;21.40;99.90
9845;DHT22;4961;50.782;6.080;2022-10-16T11:59:48;21.20;99.90
9845;DHT22;4961;50.782;6.080;2022-10-16T12:02:33;21.20;99.90
9845;DHT22;4961;50.782;6.080;2022-10-16T12:05:14;21.20;99.90
9845;DHT22;4961;50.782;6.080;2022-10-16T12:07:54;21.10;99.90
9845;DHT22;4961;50.782;6.080;2022-10-16T12:10:27;21.10;99.90
9845;DHT22;4961;50.782;6.080;2022-10-16T12:12:59;21.10;99.90
9845;DHT22;4961;50.782;6.080;2022-10-16T12:15:28;21.20;99.90
9845;DHT22;4961;50.782;6.080;2022-10-16T12:18:21;21.20;99.90
9845;DHT22;4961;50.782;6.080;2022-10-16T12:20:55;21.30;99.90
9845;DHT22;4961;50.782;6.080;2022-10-16T12:23:27;21.40;99.90
9845;DHT22;4961;50.782;6.080;2022-10-16T12:25:56;21.50;99.90
9845;DHT22;4961;50.782;6.080;2022-10-16T12:28:27;21.60;99.90
9845;DHT22;4961;50.782;6.080;2022-10-16T12:30:57;21.60;99.90
9845;DHT22;4961;50.782;6.080;2022-10-16T12:33:28;21.60;99.90
9845;DHT22;4961;50.782;6.080;2022-10-16T12:35:59;21.50;99.90
9845;DHT22;4961;50.782;6.080;2022-10-16T12:38:32;21.40;99.90
9845;DHT22;4961;50.782;6.080;2022-10-16T12:41:05;21.40;99.90
9845;DHT22;4961;50.782;6.080;2022-10-16T12:43:39;21.30;99.90
9845;DHT22;4961;50.782;6.080;2022-10-16T12:46:33;21.30;99.90
9845;DHT22;4961;50.782;6.080;2022-10-16T12:49:20;21.20;99.90
9845;DHT22;4961;50.782;6.080;2022-10-16T12:51:49;21.10;99.90
9845;DHT22;4961;50.782;6.080;2022-10-16T12:54:20;21.10;99.90
9845;DHT22;4961;50.782;6.080;2022-10-16T12:57:03;21.10;99.90
9845;DHT22;4961;50.782;6.080;2022-10-16T12:59:40;21.10;99.90
9845;DHT22;4961;50.782;6.080;2022-10-16T13:05:35;21.00;99.90
9845;DHT22;4961;50.782;6.080;2022-10-16T13:08:21;21.00;99.90
9845;DHT22;4961;50.782;6.080;2022-10-16T13:11:03;20.90;99.90
9845;DHT22;4961;50.782;6.080;2022-10-16T13:16:30;21.00;99.90
9845;DHT22;4961;50.782;6.080;2022-10-16T13:19:13;21.00;99.90
9845;DHT22;4961;50.782;6.080;2022-10-16T13:21:52;21.00;99.90
9845;DHT22;4961;50.782;6.080;2022-10-16T13:24:35;21.10;99.90
9845;DHT22;4961;50.782;6.080;2022-10-16T13:27:16;21.20;99.90
9845;DHT22;4961;50.782;6.080;2022-10-16T13:29:53;21.20;99.90
9845;DHT22;4961;50.782;6.080;2022-10-16T13:32:22;21.10;99.90
9845;DHT22;4961;50.782;6.080;2022-10-16T13:34:51;21.10;99.90
9845;DHT22;4961;50.782;6.080;2022-10-16T13:37:23;21.20;99.90
9845;DHT22;4961;50.782;6.080;2022-10-16T13:40:04;21.30;99.90
9845;DHT22;4961;50.782;6.080;2022-10-16T13:42:36;21.20;99.90
9845;DHT22;4961;50.782;6.080;2022-10-16T13:45:17;21.30;99.90
9845;DHT22;4961;50.782;6.080;2022-10-16T13:47:47;21.20;99.90
9845;DHT22;4961;50.782;6.080;2022-10-16T13:50:17;21.20;99.90
9845;DHT22;4961;50.782;6.080;2022-10-16T13:52:46;21.10;99.90
9845;DHT22;4961;50.782;6.080;2022-10-16T13:55:16;21.00;99.90
9845;DHT22;4961;50.782;6.080;2022-10-16T13:57:46;20.90;99.90
9845;DHT22;4961;50.782;6.080;2022-10-16T14:00:19;20.90;99.90
9845;DHT22;4961;50.782;6.080;2022-10-16T14:02:53;20.80;99.90
9845;DHT22;4961;50.782;6.080;2022-10-16T14:05:23;20.70;99.90
9845;DHT22;4961;50.782;6.080;2022-10-16T14:07:52;20.60;99.90
9845;DHT22;4961;50.782;6.080;2022-10-16T14:10:25;20.50;99.90
9845;DHT22;4961;50.782;6.080;2022-10-16T14:13:01;20.40;99.90
9845;DHT22;4961;50.782;6.080;2022-10-16T14:15:30;20.20;99.90
9845;DHT22;4961;50.782;6.080;2022-10-16T14:18:00;20.10;99.90
9845;DHT22;4961;50.782;6.080;2022-10-16T14:20:30;20.10;99.90
9845;DHT22;4961;50.782;6.080;2022-10-16T14:23:01;20.10;99.90
9845;DHT22;4961;50.782;6.080;2022-10-16T14:25:31;20.00;99.90
9845;DHT22;4961;50.782;6.080;2022-10-16T14:28:03;20.00;99.90
9845;DHT22;4961;50.782;6.080;2022-10-16T14:30:33;20.00;99.90
9845;DHT22;4961;50.782;6.080;2022-10-16T14:33:03;20.10;99.90
9845;DHT22;4961;50.782;6.080;2022-10-16T14:35:33;20.10;99.90
9845;DHT22;4961;50.782;6.080;2022-10-16T14:38:04;20.10;99.90
9845;DHT22;4961;50.782;6.080;2022-10-16T14:40:35;20.10;99.90
9845;DHT22;4961;50.782;6.080;2022-10-16T14:43:05;20.10;99.90
9845;DHT22;4961;50.782;6.080;2022-10-16T14:45:35;20.10;99.90
9845;DHT22;4961;50.782;6.080;2022-10-16T14:48:06;20.00;99.90
9845;DHT22;4961;50.782;6.080;2022-10-16T14:50:45;20.00;99.90
9845;DHT22;4961;50.782;6.080;2022-10-16T14:53:14;19.90;99.90
9845;DHT22;4961;50.782;6.080;2022-10-16T14:55:43;19.90;99.90
9845;DHT22;4961;50.782;6.080;2022-10-16T14:58:15;19.90;99.90
9845;DHT22;4961;50.782;6.080;2022-10-16T15:00:44;19.90;99.90
9845;DHT22;4961;50.782;6.080;2022-10-16T15:03:13;19.70;99.90
9845;DHT22;4961;50.782;6.080;2022-10-16T15:05:41;19.70;99.90
9845;DHT22;4961;50.782;6.080;2022-10-16T15:08:10;19.70;99.90
9845;DHT22;4961;50.782;6.080;2022-10-16T15:10:41;19.70;99.90
9845;DHT22;4961;50.782;6.080;2022-10-16T15:13:12;19.70;99.90
9845;DHT22;4961;50.782;6.080;2022-10-16T15:15:43;19.70;99.90
9845;DHT22;4961;50.782;6.080;2022-10-16T15:18:12;19.60;99.90
9845;DHT22;4961;50.782;6.080;2022-10-16T15:20:41;19.60;99.90
9845;DHT22;4961;50.782;6.080;2022-10-16T15:23:15;19.60;99.90
9845;DHT22;4961;50.782;6.080;2022-10-16T15:25:50;19.60;99.90
9845;DHT22;4961;50.782;6.080;2022-10-16T15:28:24;19.60;99.90
9845;DHT22;4961;50.782;6.080;2022-10-16T15:30:55;19.60;99.90
9845;DHT22;4961;50.782;6.080;2022-10-16T15:33:25;19.60;99.90
9845;DHT22;4961;50.782;6.080;2022-10-16T15:36:02;19.60;99.90
9845;DHT22;4961;50.782;6.080;2022-10-16T15:38:31;19.50;99.90
9845;DHT22;4961;50.782;6.080;2022-10-16T15:40:59;19.50;99.90
9845;DHT22;4961;50.782;6.080;2022-10-16T15:43:27;19.50;99.90
9845;DHT22;4961;50.782;6.080;2022-10-16T15:46:02;19.40;99.90
9845;DHT22;4961;50.782;6.080;2022-10-16T15:48:33;19.30;99.90
9845;DHT22;4961;50.782;6.080;2022-10-16T15:51:05;19.30;99.90
9845;DHT22;4961;50.782;6.080;2022-10-16T15:53:34;19.30;99.90
9845;DHT22;4961;50.782;6.080;2022-10-16T15:56:02;19.30;99.90
9845;DHT22;4961;50.782;6.080;2022-10-16T15:58:31;19.40;99.90
9845;DHT22;4961;50.782;6.080;2022-10-16T16:01:01;19.30;99.90
9845;DHT22;4961;50.782;6.080;2022-10-16T16:03:31;19.30;99.90
9845;DHT22;4961;50.782;6.080;2022-10-16T16:06:04;19.30;99.90
9845;DHT22;4961;50.782;6.080;2022-10-16T16:08:33;19.30;99.90
9845;DHT22;4961;50.782;6.080;2022-10-16T16:11:04;19.20;99.90
9845;DHT22;4961;50.782;6.080;2022-10-16T16:13:33;19.30;99.90
9845;DHT22;4961;50.782;6.080;2022-10-16T16:16:07;19.20;99.90
9845;DHT22;4961;50.782;6.080;2022-10-16T16:18:36;19.20;99.90
9845;DHT22;4961;50.782;6.080;2022-10-16T16:21:05;19.10;99.90
9845;DHT22;4961;50.782;6.080;2022-10-16T16:23:33;19.20;99.90
9845;DHT22;4961;50.782;6.080;2022-10-16T16:26:03;19.10;99.90
9845;DHT22;4961;50.782;6.080;2022-10-16T16:28:32;19.10;99.90
9845;DHT22;4961;50.782;6.080;2022-10-16T16:31:00;19.00;99.90
9845;DHT22;4961;50.782;6.080;2022-10-16T16:33:30;19.00;99.90
9845;DHT22;4961;50.782;6.080;2022-10-16T16:35:58;18.90;99.90
9845;DHT22;4961;50.782;6.080;2022-10-16T16:38:27;18.90;99.90
9845;DHT22;4961;50.782;6.080;2022-10-16T16:40:55;18.90;99.90
9845;DHT22;4961;50.782;6.080;2022-10-16T16:43:24;18.80;99.90